• Join FlightAware (Why Join?)
  • Login
  • US Flag 
06:16PM EST


 

Airport Tracker/Info


-or-


 

Live Flight TrackerFlight Track Log ✈ N498QS ✈ 24-Jun-2013 ✈ KHPN - KBOS

Flight Track Log - Related Links

Times and Time Zones

All times are in EDT time to prevent confusion due to time zone crossing. See the N498QS flight status page for this flight to view local times or setup timezone preferences in your user account.

Time Position Orientation Groundspeed Altitude Reporting Facility
EDT Latitude Longitude Course Direction KTS MPH feet Rate Location/Type
08:31AM 41.1167 -73.7500 45° Northeast 170 196 3,200  Level New York TRACON
08:33AM 41.2000 -73.6375 45° Northeast 191 220 8,500 2,627 Climbing Boston Center
08:34AM 41.2492 -73.5003 64° Northeast 297 342 12,000 2,571 Climbing Boston Center
08:35AM 41.2875 -73.3958 64° Northeast 344 396 14,200 1,500 Climbing Boston Center
08:36AM 41.3408 -73.2556 63° Northeast 360 414 15,000 403 Climbing Boston Center
08:37AM 41.3833 -73.1289 66° East 365 420 15,000 450 Level Boston Center
08:38AM 41.4050 -72.9936 78° East 371 427 15,900 1,000 Climbing Boston Center
08:39AM 41.4286 -72.8497 78° East 376 433 17,000 550 Climbing Boston Center
08:40AM 41.4497 -72.7006 79° East 392 451 17,000  Level Boston Center
08:41AM 41.4731 -72.5592 78° East 392 451 17,000  Level Boston Center
08:42AM 41.4939 -72.4122 79° East 392 451 17,000  Level Boston Center
08:43AM 41.5125 -72.2986 78° East 392 451 17,000  Level Boston Center
08:44AM 41.5600 -72.1322 69° East 393 452 17,000  Level Boston Center
08:45AM 41.5972 -72.0097 68° East 398 458 17,000  Level Boston Center
08:46AM 41.6425 -71.8567 68° East 398 458 17,000 -150 Level Boston Center
08:47AM 41.6792 -71.7314 69° East 398 458 16,700 -450 Descending Boston Center
08:48AM 41.7200 -71.5889 69° East 392 451 16,100 -1,388 Descending Boston Center
08:49AM 41.7644 -71.4408 68° East 392 451 13,900 -1,700 Descending Boston Center
08:50AM 41.7989 -71.3206 69° East 386 444 12,700 -1,311 Descending Boston Center
08:51AM 41.8411 -71.1778 68° East 372 428 11,300 -1,140 Descending Boston Center
08:52AM 41.8775 -71.0767 64° Northeast 350 403 10,400 -1,450 Descending Boston Center
08:53AM 41.9239 -70.9669 60° Northeast 312 359 8,400 -1,210 Descending Boston Center
08:54AM 41.9644 -70.8739 60° Northeast 304 350 8,000 -200 Descending Boston Center
08:55AM 42.0069 -70.7806 58° Northeast 297 342 8,000  Level Boston Center
08:56AM 42.0597 -70.6925 51° Northeast 297 342 8,000 -298 Level Boston Center
08:57AM 42.1258 -70.6486 26° Northeast 265 305 7,400 -1,190 Descending Boston Center
08:58AM 42.2031 -70.6575 355° North 250 288 5,600 -1,765 Descending Boston Center
08:59AM 42.2781 -70.6639 356° North 256 295 3,900 -1,400 Descending Boston Center
09:00AM 42.3453 -70.6900 344° North 256 295 2,800 -1,041 Descending Boston Center
09:01AM 42.3839 -70.7619 306° West 233 268 1,800 -600 Descending Boston Center
09:02AM 42.3892 -70.8378 275° West 199 229 1,600 -200 Descending Boston Center
09:03AM 42.3794 -70.8914 256° West 175 201 1,400 -500 Descending Boston Center
09:04AM 42.3678 -70.9508 255° West 158 182 600 -710 Descending Boston Center
09:05AM 42.3667 -70.9667 265° West 135 155 300 -545 Descending KA90
09:07AM 42.3500 -71.0000 North  Level FlightAware Approximate
09:14AM 42.3630 -71.0064 North  Level Estimated